Hauptseite
METAR-TAF:

METAR-TAF

Flughäfen :

Flughafen Tahiti

Tahiti, Französisch-Polynesien

Breite: 17-33S, Länge: 149-37W, Höhe: 2 m

Beobachtung

Neuester Wetterbericht von vor 12 Minuten, um 07:30 UTC
Wind 2 kt aus unterschiedlichen Richtungen
Temperatur 24°C
Luftfeuchtigkeit 83%
Luftdruck 1015 hPa
Sichtweite 10 km oder mehr
Leicht bewölkt in der Höhe von 2000 ft

METAR: NTAA 170730Z VRB02KT 9999 FEW020 24/21 Q1015 NOSIG

Zeit: 21:42 (07:42 UTC)

Prognose

Neuester Wetterbericht von vor 2 Stunden und 42 Minuten, um 05:00 UTC
Gültige Prognose vom 17 um 06 UTC bis 18 um 12 UTC
Wind 5 kt aus unterschiedlichen Richtungen
Sichtweite 10 km oder mehr
Leicht bewölkt in der Höhe von 2300 ft
Aufgelockert bewölkt in der Höhe von 5000 ft

TAF: NTAA 170500Z 1706/1812 VRB05KT 9999 FEW023 SCT050

Wetterbeobachtungen und Prognosen von mehr als 4000 Flughäfen (METAR und TAF Bericht).

Die verfügbaren Stationen werden durch gelbe und rote Markierungen auf der Karte dargestellt.

Führen Sie die Maus auf sie, um den Namen der Station zu sehen.

Darauf klicken, um die Beobachtung von Wetterbeobachtungen und Prognosen zu sehen.

Um die Karte zu ändern : klicken Sie auf den grünen Tasten mit einem schwarzen Kreuz Zum Vergrößern, auf den grünen Button mit einem Gedankenstrich zu verkleinern, oder auf die grünen Pfeile für benachbarte Karten.


METAR-TAF: